Etusivu
METAR-TAF:

METAR-TAF

Lentoasemat :

Utin lentoasema

Utti, Suomi

Leveyspiiri: 60-54N, Pituuspiiri: 026-56E, korkeus merenpinnasta: 100 m

Tämänhetkinen sää

Tämä raportti tehtiin 37 minuuttia sitten, kello 14.50 UTC
Tuuli 8 kn etelästä/lounaasta, vaihdellen etelän ja lounaan välillä
Lämpötila 19°C
Kosteus 78%
Ilmanpaine 1022 hPa
Näkyvyys 10 km tai enemmän
Hajonneita pilviä 1600 ft:n korkeudessa
Pilvistä 4400 ft:n korkeudessa

METAR: EFUT 061450Z AUTO 21008KT 170V230 9999 BKN016 OVC044 19/15 Q1022

Aika: 18:27 (15:27 UTC)

Sääennuste

Tämä raportti tehtiin 58 minuuttia sitten, kello 14.29 UTC
Ennuste voimassa 06. päivästä klo 15 UTC - 06. päivään klo 22 UTC
Tuuli 8 kn lounaasta
Näkyvyys 10 km tai enemmän
Hajanaisia pilviä 1500 ft:n korkeudessa
Hajonneita pilviä 3500 ft:n korkeudessa
Todennäköisyys 30%
06. päivästä klo 15 UTC - 06. päivään klo 18 UTC
Hajonneita pilviä 1400 ft:n korkeudessa

TAF: EFUT 061429Z 0615/0622 22008KT 9999 SCT015 BKN035 PROB30 0615/0618 BKN014

Säähavainnot ja -ennusteet yli 4000 lentoasemalta (METAR- ja TAF-raportit).

Käytössä olevat sääasemat on merkitty karttaan keltaisilla ja punaisilla pisteillä.

Aseta hiiri pisteen päälle nähdäksesi sääaseman nimen.

Klikkaa sitten nähdäksesi säähavainnot ja -ennusteet.

Kartan vaihtaminen: klikkaa mustalla rastilla varustettuja vihreitä pisteitä, niin voit zoomata sisään; viivalla varustettua vihreää pistettä, niin voit zoomata ulos tai vihreitä nuolia, niin pääset viereisille kartoille.


METAR-TAF: